Time;durP1;ratioP1;P1;durP2;ratioP2;P2;SDS_P1;SDS_P2;PMS_P1;PMS_P2;Temp;Humidity;BMP_temperature;BMP_pressure;BME280_temperature;BME280_humidity;BME280_pressure;Samples;Min_cycle;Max_cycle;Signal;HPM_P1;HPM_P2
2022/02/23 00:02:52;;;;;;;3.47;1.30;;;;;;;5.50;67.63;97853.78;6212808;28;20228;-71
2022/02/23 00:05:54;;;;;;;3.17;1.50;;;;;;;5.45;68.05;97836.69;6226981;28;20594;-71
2022/02/23 00:08:56;;;;;;;6.53;1.37;;;;;;;5.40;68.29;97844.78;6191042;28;20729;-71
2022/02/23 00:11:58;;;;;;;3.53;1.40;;;;;;;5.36;69.58;97843.28;6220893;28;20234;-72
2022/02/23 00:15:00;;;;;;;3.67;1.10;;;;;;;5.32;69.57;97843.53;6224958;28;20646;-71
2022/02/23 00:18:02;;;;;;;6.67;1.63;;;;;;;5.25;68.72;97843.03;6225442;28;20257;-71
2022/02/23 00:21:04;;;;;;;6.33;1.80;;;;;;;5.24;69.65;97825.66;6225604;28;20216;-71
2022/02/23 00:24:07;;;;;;;2.80;1.10;;;;;;;5.30;69.39;97798.28;6207441;28;20580;-71
2022/02/23 00:27:08;;;;;;;2.93;1.20;;;;;;;5.34;69.35;97799.81;6226477;28;20756;-71
2022/02/23 00:30:11;;;;;;;3.03;1.03;;;;;;;5.29;69.09;97791.38;6230264;28;20211;-71
2022/02/23 00:33:13;;;;;;;2.57;0.97;;;;;;;5.28;70.02;97797.56;6213579;28;20216;-71
2022/02/23 00:36:14;;;;;;;4.37;1.03;;;;;;;5.27;69.43;97790.63;6210216;28;20239;-70
2022/02/23 00:39:17;;;;;;;3.27;0.80;;;;;;;5.29;69.34;97786.16;6225813;28;20224;-71
2022/02/23 00:42:19;;;;;;;3.03;0.90;;;;;;;5.22;70.28;97805.72;6229924;28;20289;-71
2022/02/23 00:45:24;;;;;;;0.70;0.67;;;;;;;5.22;69.43;97785.66;6228842;28;20228;-71
2022/02/23 00:48:26;;;;;;;2.47;0.90;;;;;;;5.23;69.26;97803.03;6228361;28;20255;-71
2022/02/23 00:51:28;;;;;;;2.03;0.90;;;;;;;5.17;70.05;97790.31;6229789;28;20235;-71
2022/02/23 00:54:30;;;;;;;1.50;0.77;;;;;;;5.09;70.43;97788.09;6230173;28;20617;-71
2022/02/23 00:57:32;;;;;;;1.93;0.80;;;;;;;5.06;70.76;97788.31;6228145;28;20402;-72
2022/02/23 01:00:34;;;;;;;2.33;0.77;;;;;;;5.03;70.50;97782.38;6230047;28;20232;-71
2022/02/23 01:03:36;;;;;;;1.60;0.90;;;;;;;5.03;70.99;97798.94;6227561;28;20326;-70
2022/02/23 01:06:38;;;;;;;3.87;0.93;;;;;;;5.04;71.05;97794.53;6229580;28;20235;-70
2022/02/23 01:09:41;;;;;;;3.90;1.00;;;;;;;5.09;71.35;97785.50;6220198;28;20297;-71
2022/02/23 01:12:48;;;;;;;2.63;0.80;;;;;;;5.11;70.99;97782.78;6229924;28;20232;-70
2022/02/23 01:15:51;;;;;;;4.43;0.90;;;;;;;5.18;71.36;97786.78;6228473;28;20353;-70
2022/02/23 01:18:53;;;;;;;2.57;0.80;;;;;;;5.18;70.63;97774.53;6227336;28;20651;-71
2022/02/23 01:21:55;;;;;;;4.23;0.90;;;;;;;5.26;70.52;97765.41;6211662;28;20297;-71
2022/02/23 01:24:57;;;;;;;3.70;1.00;;;;;;;5.27;71.06;97770.53;6229344;28;20239;-72
2022/02/23 01:28:04;;;;;;;3.70;1.47;;;;;;;5.29;70.84;97760.00;6227382;28;20243;-70
2022/02/23 01:31:06;;;;;;;2.77;0.90;;;;;;;5.36;70.74;97756.09;6210943;28;20607;-71
2022/02/23 01:34:08;;;;;;;2.50;0.87;;;;;;;5.47;69.95;97769.38;6221273;28;20612;-70
2022/02/23 01:37:10;;;;;;;3.97;0.90;;;;;;;5.54;69.24;97766.31;6214334;28;20285;-72
2022/02/23 01:40:13;;;;;;;0.97;0.60;;;;;;;5.56;69.51;97750.53;6213384;28;20241;-72
2022/02/23 01:43:16;;;;;;;2.70;1.00;;;;;;;5.67;68.65;97750.72;6227033;28;20549;-71
2022/02/23 01:46:18;;;;;;;2.27;0.90;;;;;;;5.72;69.02;97766.16;6227706;28;20232;-73
2022/02/23 01:49:20;;;;;;;1.53;0.80;;;;;;;5.76;68.07;97744.09;6194361;28;20236;-71
2022/02/23 01:52:25;;;;;;;2.27;0.80;;;;;;;5.80;68.86;97748.19;6229321;28;20616;-71
2022/02/23 01:55:27;;;;;;;1.37;0.70;;;;;;;5.77;68.98;97759.72;6227923;28;20537;-70
2022/02/23 01:58:30;;;;;;;1.63;0.70;;;;;;;5.76;68.89;97750.19;6226969;28;20374;-71
2022/02/23 02:01:32;;;;;;;1.90;0.80;;;;;;;5.81;67.93;97758.59;6210990;28;20321;-71
2022/02/23 02:04:34;;;;;;;1.97;0.93;;;;;;;5.88;68.10;97735.53;6216878;28;20321;-70
2022/02/23 02:07:36;;;;;;;1.90;0.73;;;;;;;5.99;67.23;97751.44;6220417;28;20318;-73
2022/02/23 02:10:38;;;;;;;1.03;0.57;;;;;;;5.98;67.59;97739.28;6209816;28;20228;-71
2022/02/23 02:13:40;;;;;;;2.67;0.80;;;;;;;5.94;67.99;97743.03;6227686;28;20231;-71
2022/02/23 02:16:43;;;;;;;1.87;0.70;;;;;;;5.98;68.23;97775.13;6227629;28;20236;-70
2022/02/23 02:19:45;;;;;;;4.50;1.27;;;;;;;6.03;68.77;97771.28;6228978;28;20294;-70
2022/02/23 02:22:49;;;;;;;4.43;1.30;;;;;;;5.90;72.10;97755.44;6227424;28;20236;-71
2022/02/23 02:25:51;;;;;;;3.60;0.93;;;;;;;5.69;74.50;97758.50;6226404;28;20232;-71
2022/02/23 02:28:53;;;;;;;3.83;1.17;;;;;;;5.53;74.21;97743.69;6226546;28;20238;-71
2022/02/23 02:31:55;;;;;;;2.67;0.90;;;;;;;5.54;74.95;97734.06;6222041;28;20592;-72
2022/02/23 02:34:57;;;;;;;3.40;1.07;;;;;;;5.43;75.76;97713.75;6203689;28;20228;-71
2022/02/23 02:38:01;;;;;;;1.80;0.80;;;;;;;5.43;75.15;97739.09;6208457;28;20219;-72
2022/02/23 02:41:03;;;;;;;1.43;0.60;;;;;;;5.52;73.54;97739.38;6226893;28;20240;-72
2022/02/23 02:44:05;;;;;;;2.30;0.70;;;;;;;5.54;73.87;97732.28;6225747;28;20232;-70
2022/02/23 02:47:07;;;;;;;1.47;0.60;;;;;;;5.66;72.74;97735.97;6205159;28;20608;-70
2022/02/23 02:50:09;;;;;;;1.97;0.70;;;;;;;5.69;73.07;97746.22;6220713;28;20669;-71
2022/02/23 02:53:11;;;;;;;3.00;0.70;;;;;;;5.66;73.41;97759.50;6226791;28;20237;-71
2022/02/23 02:56:13;;;;;;;2.57;0.90;;;;;;;5.55;75.49;97746.22;6227015;28;20223;-71
2022/02/23 02:59:15;;;;;;;4.47;1.03;;;;;;;5.54;74.31;97753.22;6227982;28;20600;-70
2022/02/23 03:02:17;;;;;;;3.10;0.80;;;;;;;5.63;73.49;97778.00;6225213;28;20598;-71
2022/02/23 03:05:19;;;;;;;1.40;0.80;;;;;;;5.87;71.73;97750.38;6226986;28;20238;-70
2022/02/23 03:08:21;;;;;;;1.80;0.70;;;;;;;5.89;72.04;97772.09;6208706;28;20670;-71
2022/02/23 03:11:24;;;;;;;3.80;0.90;;;;;;;5.78;73.81;97758.78;6225013;28;20251;-70
2022/02/23 03:14:26;;;;;;;2.27;0.90;;;;;;;5.77;73.44;97757.09;6226829;28;20238;-71
2022/02/23 03:17:28;;;;;;;1.17;0.80;;;;;;;5.69;74.12;97743.59;6226576;28;20318;-71
2022/02/23 03:20:32;;;;;;;1.80;0.60;;;;;;;5.66;74.41;97740.34;6226385;28;20656;-70
2022/02/23 03:23:35;;;;;;;2.40;0.70;;;;;;;5.63;74.79;97740.53;6226249;28;20238;-72
2022/02/23 03:26:37;;;;;;;1.17;0.40;;;;;;;5.70;73.98;97736.59;6225194;28;20598;-72
2022/02/23 03:29:39;;;;;;;1.33;0.60;;;;;;;5.72;73.67;97737.34;6226378;28;20224;-73
2022/02/23 03:32:41;;;;;;;2.50;0.70;;;;;;;5.68;73.34;97768.13;6214177;28;20225;-71
2022/02/23 03:35:45;;;;;;;3.03;0.47;;;;;;;5.81;71.97;97735.03;6211512;28;20531;-71
2022/02/23 03:38:47;;;;;;;1.07;0.60;;;;;;;5.79;72.40;97752.59;6205721;28;20362;-71
2022/02/23 03:41:49;;;;;;;0.80;0.50;;;;;;;5.78;72.50;97750.09;6220232;28;20607;-71
2022/02/23 03:44:51;;;;;;;1.97;0.60;;;;;;;5.71;72.60;97749.59;6226458;28;20262;-72
2022/02/23 03:47:53;;;;;;;1.83;0.47;;;;;;;5.71;73.19;97757.44;6224644;28;20223;-71
2022/02/23 03:50:55;;;;;;;1.60;0.60;;;;;;;5.69;72.98;97777.63;6226451;28;20230;-71
2022/02/23 03:53:58;;;;;;;1.47;0.60;;;;;;;5.86;71.71;97787.97;6226929;28;20223;-71
2022/02/23 03:57:00;;;;;;;1.10;0.57;;;;;;;5.91;72.01;97801.66;6224878;28;20234;-71
2022/02/23 04:00:05;;;;;;;1.70;0.50;;;;;;;5.81;73.56;97816.19;6226825;28;20311;-71
2022/02/23 04:03:07;;;;;;;2.57;0.60;;;;;;;5.71;75.17;97801.13;6229459;28;20220;-71
2022/02/23 04:06:09;;;;;;;0.70;0.50;;;;;;;5.68;75.31;97806.56;6230010;28;20258;-71
2022/02/23 04:09:12;;;;;;;2.20;0.60;;;;;;;5.58;76.35;97806.25;6229671;28;20227;-71
2022/02/23 04:12:15;;;;;;;0.60;0.60;;;;;;;5.61;75.06;97806.06;6231774;28;20226;-71
2022/02/23 04:15:19;;;;;;;0.73;0.50;;;;;;;5.63;74.60;97819.06;6229049;28;20219;-72
2022/02/23 04:18:21;;;;;;;1.20;0.50;;;;;;;5.69;74.37;97803.00;6229473;28;20247;-71
2022/02/23 04:21:23;;;;;;;1.37;0.50;;;;;;;5.64;75.25;97802.41;6230637;28;20267;-71
2022/02/23 04:24:25;;;;;;;1.50;0.70;;;;;;;5.67;73.99;97816.19;6230363;28;20321;-71
2022/02/23 04:27:27;;;;;;;0.97;0.67;;;;;;;5.66;74.84;97816.28;6229622;28;20263;-71
2022/02/23 04:30:29;;;;;;;0.83;0.70;;;;;;;5.73;74.27;97818.44;6229404;28;20243;-72
2022/02/23 04:33:31;;;;;;;1.83;0.90;;;;;;;5.75;73.28;97811.34;6211026;28;20967;-71
2022/02/23 04:36:33;;;;;;;1.53;0.80;;;;;;;5.71;73.96;97816.84;6219441;28;20244;-71
2022/02/23 04:39:35;;;;;;;1.30;0.77;;;;;;;5.68;74.04;97814.41;6218017;28;20235;-72
2022/02/23 04:42:38;;;;;;;1.37;0.67;;;;;;;5.74;74.22;97841.06;6230845;28;20702;-71
2022/02/23 04:45:40;;;;;;;0.60;0.60;;;;;;;5.72;73.97;97848.16;6230159;28;20243;-71
2022/02/23 04:48:44;;;;;;;2.00;0.70;;;;;;;5.78;73.94;97839.97;6228408;28;20223;-71
2022/02/23 04:51:46;;;;;;;1.57;0.60;;;;;;;5.80;73.58;97838.09;6211828;28;20236;-71
2022/02/23 04:54:48;;;;;;;1.80;0.60;;;;;;;5.91;73.16;97850.56;6230470;28;20240;-71
2022/02/23 04:57:50;;;;;;;2.37;0.80;;;;;;;5.88;73.69;97835.91;6227977;28;20231;-71
2022/02/23 05:00:52;;;;;;;0.60;0.43;;;;;;;5.80;73.90;97843.31;6228035;28;20329;-72
2022/02/23 05:03:55;;;;;;;0.70;0.60;;;;;;;5.76;74.45;97833.13;6229954;28;20647;-71
2022/02/23 05:06:57;;;;;;;1.37;0.60;;;;;;;5.80;74.57;97845.09;6209935;28;20338;-72
2022/02/23 05:09:59;;;;;;;1.87;0.60;;;;;;;5.64;75.21;97858.25;6211662;28;20232;-72
2022/02/23 05:13:01;;;;;;;2.43;0.80;;;;;;;5.62;75.12;97861.88;6226283;28;20234;-71
2022/02/23 05:16:03;;;;;;;1.53;0.70;;;;;;;5.68;74.69;97853.69;6229391;28;20251;-72
2022/02/23 05:19:06;;;;;;;1.17;0.67;;;;;;;5.70;74.62;97857.03;6227439;28;20231;-71
2022/02/23 05:22:08;;;;;;;2.20;0.70;;;;;;;5.61;74.93;97863.66;6211715;28;20704;-72
2022/02/23 05:25:10;;;;;;;2.80;0.70;;;;;;;5.50;74.75;97868.66;6229384;28;20236;-71
2022/02/23 05:28:12;;;;;;;2.10;0.80;;;;;;;5.42;75.78;97879.56;6226845;28;20687;-71
2022/02/23 05:31:14;;;;;;;0.83;0.60;;;;;;;5.45;76.46;97874.16;6227418;28;20231;-71
2022/02/23 05:34:16;;;;;;;0.97;0.60;;;;;;;5.39;75.89;97882.34;6211135;28;20236;-72
2022/02/23 05:37:18;;;;;;;1.40;0.70;;;;;;;5.38;75.53;97898.16;6204932;28;20382;-68
2022/02/23 05:40:20;;;;;;;1.47;0.60;;;;;;;5.36;75.79;97898.25;6207209;28;20232;-68
2022/02/23 05:43:22;;;;;;;3.63;0.70;;;;;;;5.32;76.65;97888.00;6229956;28;20708;-68
2022/02/23 05:46:25;;;;;;;1.27;0.70;;;;;;;5.30;76.16;97902.94;6228685;28;20591;-68
2022/02/23 05:49:27;;;;;;;2.60;0.80;;;;;;;5.39;76.33;97897.22;6229673;28;20228;-68
2022/02/23 05:52:29;;;;;;;0.73;0.60;;;;;;;5.46;76.58;97909.03;6228776;28;20270;-68
2022/02/23 05:55:31;;;;;;;3.00;0.80;;;;;;;5.48;76.21;97912.41;6225216;28;20228;-69
2022/02/23 05:58:33;;;;;;;0.70;0.70;;;;;;;5.47;76.94;97926.44;6230119;28;20747;-68
2022/02/23 06:01:36;;;;;;;1.23;0.70;;;;;;;5.47;76.33;97923.81;6229488;28;20262;-68
2022/02/23 06:04:38;;;;;;;1.30;0.70;;;;;;;5.54;76.32;97939.06;6228028;28;20223;-68
2022/02/23 06:07:40;;;;;;;2.03;0.80;;;;;;;5.65;75.89;97938.47;6219749;28;20236;-68
2022/02/23 06:10:42;;;;;;;1.83;0.53;;;;;;;5.76;74.81;97959.66;6228746;28;20232;-68
2022/02/23 06:13:51;;;;;;;1.10;0.80;;;;;;;5.90;73.42;97951.88;6227258;28;20235;-68
2022/02/23 06:16:53;;;;;;;3.23;0.97;;;;;;;5.97;73.42;97962.03;6226239;28;20232;-68
2022/02/23 06:19:55;;;;;;;1.07;0.70;;;;;;;5.93;73.41;97963.97;6226966;28;20238;-67
2022/02/23 06:22:57;;;;;;;1.13;0.60;;;;;;;5.83;73.45;97966.25;6227493;28;20229;-68
2022/02/23 06:25:59;;;;;;;2.30;0.83;;;;;;;5.78;74.17;97968.28;6225548;28;20708;-68
2022/02/23 06:29:01;;;;;;;1.23;0.60;;;;;;;5.74;74.47;97968.53;6227635;28;20237;-68
2022/02/23 06:32:06;;;;;;;2.63;0.63;;;;;;;5.70;74.50;97975.69;6223693;28;20223;-68
2022/02/23 06:35:08;;;;;;;1.20;0.60;;;;;;;5.78;72.82;98009.34;6218471;28;20243;-67
2022/02/23 06:38:10;;;;;;;0.90;0.70;;;;;;;5.82;73.21;98000.38;6190246;28;20244;-67
2022/02/23 06:41:18;;;;;;;2.23;0.80;;;;;;;5.82;72.92;98005.59;6223302;28;20263;-67
2022/02/23 06:44:21;;;;;;;1.80;0.60;;;;;;;5.87;72.77;98038.47;6225198;28;20238;-67
2022/02/23 06:47:23;;;;;;;2.77;0.90;;;;;;;5.99;72.09;98030.91;6225819;28;20285;-67
2022/02/23 06:50:25;;;;;;;2.03;0.93;;;;;;;6.00;72.26;98035.19;6226388;28;20224;-68
2022/02/23 06:53:27;;;;;;;1.07;0.80;;;;;;;5.95;71.93;98045.94;6225154;28;20219;-67
2022/02/23 06:56:29;;;;;;;1.00;0.70;;;;;;;5.93;72.14;98079.22;6226737;28;20604;-68
2022/02/23 06:59:31;;;;;;;1.00;0.73;;;;;;;5.98;71.20;98065.88;6226822;28;20734;-68
2022/02/23 07:02:34;;;;;;;2.63;0.80;;;;;;;5.99;70.27;98050.06;6227263;28;20235;-67
2022/02/23 07:05:37;;;;;;;0.80;0.60;;;;;;;5.96;70.24;98063.34;6208637;28;20635;-68
2022/02/23 07:08:44;;;;;;;3.40;0.90;;;;;;;5.98;69.19;98081.59;6210763;28;20228;-68
2022/02/23 07:11:46;;;;;;;1.03;0.80;;;;;;;6.02;68.71;98085.72;6219115;28;20237;-67
2022/02/23 07:14:51;;;;;;;1.07;0.70;;;;;;;5.97;69.29;98113.97;6226610;28;20232;-67
2022/02/23 07:17:54;;;;;;;3.63;0.90;;;;;;;5.93;69.51;98127.22;6225555;28;21025;-68
2022/02/23 07:20:56;;;;;;;1.23;0.60;;;;;;;6.00;68.39;98139.97;6226980;28;20227;-69
2022/02/23 07:23:59;;;;;;;1.47;0.77;;;;;;;6.00;68.88;98156.53;6224177;28;20227;-69
2022/02/23 07:27:02;;;;;;;1.47;0.70;;;;;;;5.99;69.38;98161.88;6218293;28;20230;-68
2022/02/23 07:30:07;;;;;;;1.33;0.87;;;;;;;6.02;67.78;98167.78;6226866;28;20216;-68
2022/02/23 07:33:10;;;;;;;2.53;0.70;;;;;;;6.02;68.84;98173.03;6209710;28;20226;-69
2022/02/23 07:36:14;;;;;;;1.40;0.80;;;;;;;6.13;68.12;98188.16;6203873;28;20751;-68
2022/02/23 07:39:16;;;;;;;1.77;0.80;;;;;;;6.22;67.57;98192.91;6219791;28;20302;-68
2022/02/23 07:42:19;;;;;;;1.53;0.80;;;;;;;6.35;67.37;98207.03;6226468;28;20223;-68
2022/02/23 07:45:41;;;;;;;1.20;0.87;;;;;;;6.46;66.51;98216.94;6223274;28;20223;-68
2022/02/23 07:48:46;;;;;;;3.53;0.70;;;;;;;6.45;65.97;98236.22;6224121;28;20597;-69
2022/02/23 07:51:49;;;;;;;2.70;0.90;;;;;;;6.45;65.64;98231.81;6209210;28;20231;-68
2022/02/23 07:54:51;;;;;;;2.83;1.00;;;;;;;6.40;65.26;98241.69;6230545;28;20334;-67
2022/02/23 07:57:54;;;;;;;2.57;0.93;;;;;;;6.40;66.13;98257.44;6224870;28;20288;-68
2022/02/23 08:00:57;;;;;;;1.57;0.63;;;;;;;6.47;65.78;98250.09;6220073;28;20335;-69
2022/02/23 08:03:59;;;;;;;4.63;0.70;;;;;;;6.57;64.67;98267.00;6226134;28;20798;-67
2022/02/23 08:07:01;;;;;;;0.87;0.60;;;;;;;6.60;64.72;98262.44;6223224;28;20215;-68
2022/02/23 08:10:05;;;;;;;1.50;0.60;;;;;;;6.70;64.34;98289.00;6217092;28;20239;-69
2022/02/23 08:13:07;;;;;;;2.77;0.97;;;;;;;6.61;62.54;98292.13;6225403;28;20837;-67
2022/02/23 08:19:49;;;;;;;2.53;0.60;;;;;;;6.28;61.57;98313.16;6246417;28;20678;-68
2022/02/23 08:22:52;;;;;;;1.33;0.50;;;;;;;6.39;60.31;98305.53;6246968;28;20592;-68
2022/02/23 08:25:54;;;;;;;3.10;0.67;;;;;;;6.46;58.30;98311.31;6225521;28;20231;-71
2022/02/23 08:28:56;;;;;;;2.60;0.60;;;;;;;6.70;59.02;98330.13;6226417;28;20236;-69
2022/02/23 08:31:59;;;;;;;1.87;0.60;;;;;;;6.98;55.99;98336.41;6219482;28;20317;-69
2022/02/23 08:35:01;;;;;;;1.87;0.60;;;;;;;7.19;56.82;98336.13;6212943;28;20311;-68
2022/02/23 08:38:08;;;;;;;2.03;0.60;;;;;;;7.30;55.63;98354.75;6208671;28;20606;-68
2022/02/23 08:41:11;;;;;;;2.63;1.03;;;;;;;7.45;54.47;98334.66;6217418;28;20231;-69
2022/02/23 08:44:14;;;;;;;0.97;0.70;;;;;;;7.42;54.91;98356.69;6223948;28;20711;-69
2022/02/23 08:47:18;;;;;;;1.83;0.70;;;;;;;7.46;54.70;98367.88;6224584;28;20234;-68
2022/02/23 08:50:20;;;;;;;4.40;0.70;;;;;;;7.62;53.60;98369.53;6229901;28;20233;-69
2022/02/23 08:53:23;;;;;;;0.90;0.50;;;;;;;7.81;52.08;98377.19;6229909;28;20218;-69
2022/02/23 08:56:26;;;;;;;3.00;0.90;;;;;;;7.80;51.55;98386.00;6227718;28;20233;-69
2022/02/23 08:59:28;;;;;;;1.40;0.70;;;;;;;7.89;52.32;98388.09;6228537;28;20709;-69
2022/02/23 09:02:30;;;;;;;2.63;0.70;;;;;;;8.32;53.89;98394.34;6230074;28;20615;-70
2022/02/23 09:05:34;;;;;;;1.70;0.60;;;;;;;8.55;52.18;98410.53;6229055;28;20656;-69
2022/02/23 09:08:36;;;;;;;2.47;0.90;;;;;;;8.13;51.36;98412.97;6213650;28;20604;-68
2022/02/23 09:11:39;;;;;;;4.13;1.33;;;;;;;8.13;51.54;98414.75;6215889;28;20717;-69
2022/02/23 09:14:43;;;;;;;5.37;1.00;;;;;;;7.78;52.52;98429.94;6229551;28;20310;-69
2022/02/23 09:17:45;;;;;;;3.13;0.90;;;;;;;7.60;51.61;98436.22;6227917;28;20232;-69
2022/02/23 09:20:47;;;;;;;1.63;0.73;;;;;;;7.61;52.24;98430.88;6229397;28;20741;-69
2022/02/23 09:23:50;;;;;;;3.10;0.90;;;;;;;7.75;53.32;98449.34;6229141;28;20326;-69
2022/02/23 09:26:52;;;;;;;2.23;0.80;;;;;;;8.02;52.36;98430.28;6164532;28;20588;-69
2022/02/23 09:29:54;;;;;;;4.73;1.10;;;;;;;7.75;50.49;98449.34;6223867;28;20596;-68
2022/02/23 09:32:56;;;;;;;1.67;0.80;;;;;;;7.69;51.61;98457.56;6214312;28;20596;-68
2022/02/23 09:36:02;;;;;;;4.30;0.93;;;;;;;7.68;51.62;98458.53;6216750;28;20265;-68
2022/02/23 09:39:04;;;;;;;2.27;0.90;;;;;;;7.77;52.58;98465.03;6217688;28;20253;-69
2022/02/23 09:42:10;;;;;;;2.53;0.70;;;;;;;7.85;51.48;98486.47;6229481;28;20672;-68
2022/02/23 09:45:13;;;;;;;1.80;1.00;;;;;;;8.04;50.46;98470.50;6226954;28;20279;-69
2022/02/23 09:48:15;;;;;;;1.93;0.90;;;;;;;8.02;50.10;98461.84;6226899;28;20236;-68
2022/02/23 09:51:17;;;;;;;3.10;0.90;;;;;;;7.94;49.97;98490.34;6229088;28;20289;-68
2022/02/23 09:54:19;;;;;;;1.67;0.83;;;;;;;7.92;50.32;98489.56;6228998;28;20231;-68
2022/02/23 09:57:21;;;;;;;2.57;0.97;;;;;;;8.17;49.29;98503.03;6226534;28;20654;-69
2022/02/23 10:00:24;;;;;;;2.50;0.73;;;;;;;8.21;48.66;98474.75;6227680;28;20230;-69
2022/02/23 10:03:26;;;;;;;4.90;1.20;;;;;;;8.44;49.56;98488.31;6228616;28;20658;-68
2022/02/23 10:06:30;;;;;;;2.27;1.03;;;;;;;8.77;49.33;98489.88;6225716;28;20378;-68
2022/02/23 10:09:43;;;;;;;3.17;1.03;;;;;;;8.96;47.37;98494.88;6210833;28;20578;-68
2022/02/23 10:12:53;;;;;;;2.40;1.00;;;;;;;8.97;46.95;98489.53;6227065;28;20694;-69
2022/02/23 10:15:58;;;;;;;2.77;0.93;;;;;;;8.85;46.44;98508.69;6226518;28;20243;-67
2022/02/23 10:19:22;;;;;;;2.53;0.77;;;;;;;8.77;47.51;98497.78;6229050;28;20624;-68
2022/02/23 10:22:24;;;;;;;3.17;1.10;;;;;;;9.02;46.73;98482.19;6227058;28;20377;-68
2022/02/23 10:25:28;;;;;;;1.90;0.90;;;;;;;8.95;46.40;98501.94;6227168;28;20694;-68
2022/02/23 10:28:35;;;;;;;3.13;1.20;;;;;;;9.55;44.61;98485.91;6227317;28;20795;-68
2022/02/23 10:31:49;;;;;;;2.30;0.87;;;;;;;9.65;45.18;98463.28;6223881;28;20221;-68
2022/02/23 10:34:55;;;;;;;1.83;0.80;;;;;;;9.93;45.14;98460.56;6211274;28;20248;-68
2022/02/23 10:37:57;;;;;;;2.77;1.00;;;;;;;10.00;44.99;98485.56;6203651;28;20275;-68
2022/02/23 10:41:02;;;;;;;4.80;1.23;;;;;;;9.93;42.95;98470.25;6213765;28;20278;-68
2022/02/23 10:44:04;;;;;;;4.87;1.20;;;;;;;9.87;43.04;98466.25;6228304;28;20234;-68
2022/02/23 10:47:07;;;;;;;4.80;0.80;;;;;;;9.50;42.86;98445.81;6227243;28;20235;-69
2022/02/23 10:50:11;;;;;;;2.50;1.07;;;;;;;9.22;44.94;98473.06;6227350;28;20240;-68
2022/02/23 10:53:25;;;;;;;3.57;0.90;;;;;;;9.37;44.24;98472.09;6227523;28;20239;-68
2022/02/23 10:56:30;;;;;;;3.73;1.00;;;;;;;9.27;44.64;98470.16;6226972;28;20808;-68
2022/02/23 10:59:31;;;;;;;2.60;0.93;;;;;;;9.50;43.50;98458.97;6228801;28;20227;-68
2022/02/23 11:02:34;;;;;;;2.10;0.90;;;;;;;9.73;43.32;98454.88;6230563;28;20250;-69
2022/02/23 11:05:38;;;;;;;3.37;1.57;;;;;;;9.86;44.12;98464.56;6227526;28;20642;-68
2022/02/23 11:08:40;;;;;;;3.90;0.90;;;;;;;10.23;44.16;98457.72;6237658;28;20299;-68
2022/02/23 11:11:43;;;;;;;3.67;1.07;;;;;;;9.90;43.23;98471.31;6225712;28;20242;-68
2022/02/23 11:14:46;;;;;;;4.23;0.97;;;;;;;9.98;43.12;98458.47;6226790;28;20215;-68
2022/02/23 11:17:50;;;;;;;4.13;0.90;;;;;;;10.24;43.21;98448.88;6226429;28;20754;-68
2022/02/23 11:20:53;;;;;;;3.17;0.93;;;;;;;10.78;41.46;98438.16;6224906;28;20231;-69
2022/02/23 11:24:00;;;;;;;2.10;0.70;;;;;;;10.86;40.85;98437.63;6225702;28;20716;-68
2022/02/23 11:27:08;;;;;;;3.60;1.03;;;;;;;10.75;40.65;98453.38;6226224;28;20224;-68
2022/02/23 11:30:16;;;;;;;3.17;0.90;;;;;;;10.35;42.01;98466.63;6225802;28;20299;-69
2022/02/23 11:33:22;;;;;;;3.87;0.97;;;;;;;10.16;43.26;98455.56;6224939;28;20683;-68
2022/02/23 11:36:39;;;;;;;2.50;0.77;;;;;;;10.31;42.28;98444.88;6219557;28;20369;-68
2022/02/23 11:39:43;;;;;;;2.30;1.00;;;;;;;10.42;41.98;98452.06;6213216;28;20611;-69
2022/02/23 11:42:46;;;;;;;3.40;0.97;;;;;;;10.76;42.97;98426.03;6224195;28;20223;-69
2022/02/23 11:45:56;;;;;;;4.00;1.30;;;;;;;11.04;41.50;98416.06;6225860;28;20246;-69
2022/02/23 11:48:59;;;;;;;2.77;1.20;;;;;;;11.52;41.13;98425.88;6230764;28;20220;-68
2022/02/23 11:52:14;;;;;;;3.87;1.00;;;;;;;11.81;40.78;98425.47;6241816;28;20231;-68
2022/02/23 11:55:20;;;;;;;3.50;0.90;;;;;;;11.39;40.78;98439.13;6226670;28;20286;-68
2022/02/23 11:58:47;;;;;;;2.17;0.83;;;;;;;11.32;40.88;98440.53;6226303;28;20241;-68
2022/02/23 12:01:59;;;;;;;2.60;0.80;;;;;;;11.53;42.58;98436.34;6225982;28;20298;-68
2022/02/23 12:05:02;;;;;;;2.33;0.90;;;;;;;11.35;42.27;98425.31;6226416;28;20228;-68
2022/02/23 12:08:06;;;;;;;3.23;1.00;;;;;;;11.65;43.81;98437.28;6214855;28;20234;-69
2022/02/23 12:11:17;;;;;;;4.97;1.03;;;;;;;12.65;42.29;98420.97;6217367;28;20715;-67
2022/02/23 12:14:19;;;;;;;2.47;1.07;;;;;;;13.38;41.02;98425.81;6226365;28;20342;-67
2022/02/23 12:17:43;;;;;;;1.57;0.70;;;;;;;13.98;39.05;98436.78;6226596;28;20226;-67
2022/02/23 12:20:46;;;;;;;2.07;0.90;;;;;;;13.76;38.61;98451.94;6224248;28;20266;-68
2022/02/23 12:23:48;;;;;;;2.40;0.90;;;;;;;12.23;39.69;98452.38;6229082;28;20268;-68
2022/02/23 12:26:53;;;;;;;2.47;0.90;;;;;;;11.66;41.36;98439.81;6228533;28;20227;-68
2022/02/23 12:29:55;;;;;;;2.03;1.00;;;;;;;11.51;41.48;98432.97;6230093;28;20238;-68
2022/02/23 12:33:00;;;;;;;1.90;0.80;;;;;;;11.77;40.53;98425.84;6215264;28;20606;-68
2022/02/23 12:36:07;;;;;;;22.47;2.30;;;;;;;11.95;40.64;98416.53;6210197;28;20736;-68
2022/02/23 12:39:18;;;;;;;2.10;0.70;;;;;;;12.20;40.20;98426.97;6223110;28;20224;-67
2022/02/23 12:42:26;;;;;;;5.20;0.90;;;;;;;12.64;40.63;98417.47;6229263;28;20645;-67
2022/02/23 12:45:27;;;;;;;2.80;0.90;;;;;;;13.00;37.77;98421.72;6228948;28;20708;-67
2022/02/23 12:48:35;;;;;;;2.40;0.97;;;;;;;13.11;36.85;98421.72;6229202;28;20327;-69
2022/02/23 12:51:40;;;;;;;1.63;0.90;;;;;;;12.78;38.23;98429.63;6229998;28;20241;-68
2022/02/23 12:54:42;;;;;;;2.53;0.70;;;;;;;12.64;37.55;98435.16;6229892;28;20591;-68
2022/02/23 12:57:44;;;;;;;2.67;0.90;;;;;;;12.31;39.32;98420.88;6230548;28;21000;-69
2022/02/23 13:00:49;;;;;;;2.77;0.73;;;;;;;12.74;39.56;98417.59;6227494;28;20321;-69
2022/02/23 13:03:53;;;;;;;1.23;0.70;;;;;;;12.53;38.84;98431.53;6230031;28;20726;-69
2022/02/23 13:06:57;;;;;;;1.87;0.70;;;;;;;12.76;38.31;98419.19;6209929;28;20706;-69
2022/02/23 13:10:02;;;;;;;3.93;1.00;;;;;;;12.66;38.35;98435.91;6222602;28;20588;-68
2022/02/23 13:13:05;;;;;;;1.70;0.90;;;;;;;13.03;37.96;98420.63;6229522;28;20227;-67
2022/02/23 13:16:09;;;;;;;1.33;0.80;;;;;;;13.25;36.83;98424.16;6228187;28;20612;-69
2022/02/23 13:19:25;;;;;;;3.43;1.13;;;;;;;13.14;36.61;98421.50;6229586;28;20602;-68
2022/02/23 13:22:30;;;;;;;3.00;0.87;;;;;;;13.13;36.02;98414.50;6227034;28;20238;-69
2022/02/23 13:25:32;;;;;;;4.13;0.87;;;;;;;13.83;33.87;98423.94;6226274;28;20223;-68
2022/02/23 13:28:36;;;;;;;1.50;0.80;;;;;;;14.18;34.95;98424.50;6230154;28;20234;-68
2022/02/23 13:31:41;;;;;;;4.17;1.20;;;;;;;16.24;32.28;98418.00;6225517;28;20219;-70
2022/02/23 13:34:45;;;;;;;2.17;1.00;;;;;;;17.57;29.29;98415.09;6219538;28;20249;-68
2022/02/23 13:37:48;;;;;;;2.47;0.90;;;;;;;18.74;28.15;98408.75;6214793;28;20236;-69
2022/02/23 13:40:50;;;;;;;2.93;1.00;;;;;;;19.96;25.71;98414.72;6220409;28;20712;-69
2022/02/23 13:43:52;;;;;;;1.90;0.80;;;;;;;21.30;24.14;98430.28;6228872;28;20236;-69
2022/02/23 13:47:10;;;;;;;3.50;0.90;;;;;;;21.98;23.37;98420.78;6212015;28;20565;-68
2022/02/23 13:50:17;;;;;;;2.83;1.20;;;;;;;22.15;22.47;98418.84;6227162;28;20639;-69
2022/02/23 13:53:22;;;;;;;5.17;1.10;;;;;;;23.07;22.79;98412.34;6227385;28;20231;-68
2022/02/23 13:56:26;;;;;;;108.60;13.50;;;;;;;22.98;21.16;98416.13;6228460;28;20708;-68
2022/02/23 13:59:28;;;;;;;3.73;1.20;;;;;;;22.53;22.04;98415.19;6228005;28;20242;-67
2022/02/23 14:02:34;;;;;;;2.77;0.90;;;;;;;21.69;23.36;98435.69;6227183;28;22110;-67
2022/02/23 14:05:38;;;;;;;3.60;0.93;;;;;;;19.62;24.69;98427.31;6227458;28;20749;-68
2022/02/23 14:08:46;;;;;;;2.30;1.00;;;;;;;18.69;26.76;98440.47;6209829;28;20318;-68
2022/02/23 14:11:48;;;;;;;3.93;1.00;;;;;;;17.36;28.18;98459.91;6218622;28;20243;-68
2022/02/23 14:14:50;;;;;;;3.20;0.93;;;;;;;15.54;30.80;98442.09;6227289;28;20330;-68
2022/02/23 14:17:52;;;;;;;7.63;1.53;;;;;;;13.99;33.41;98461.50;6228494;28;20860;-68
2022/02/23 14:20:56;;;;;;;3.47;1.23;;;;;;;12.69;35.77;98451.53;6229032;28;20265;-68
2022/02/23 14:24:05;;;;;;;2.43;0.93;;;;;;;11.74;37.84;98466.53;6225981;28;20238;-68
2022/02/23 14:27:14;;;;;;;1.97;0.80;;;;;;;10.91;39.71;98454.84;6227449;28;20708;-68
2022/02/23 14:30:23;;;;;;;3.43;1.00;;;;;;;10.56;40.83;98469.63;6227663;28;20210;-68
2022/02/23 14:33:32;;;;;;;2.13;1.30;;;;;;;10.33;41.03;98455.31;6209571;28;20336;-70
2022/02/23 14:36:34;;;;;;;2.47;0.73;;;;;;;10.03;42.15;98458.16;6221852;28;20236;-68